PWSweather.com
Personal Weather Stations
Station Observations
KWALONGB2
81st Sandridge Rd., Long Beach, WA 98631

81st Sandridge Rd.Long Beach, WA 98631

Lat: 46.36, Lon: -124.03

Elevation: 7

Station Type: Davis Vantage Pro2

http://www.642weather.com/weather/

Latest ConditionsUpdated 1:10:01 PM PDT Tuesday, May 21, 2019
Currently Today's Max Today's Min Today's Average
Temperature 59.0°F15.0°C 59.9°F15.5°C 49.2°F9.6°C 53.2°F11.8°C
Dew Point 51.8°F11.0°C 53.0°F11.7°C 47.3°F8.5°C 49.7°F9.8°C
Winds 1.2 mph S1.9 kmh S 6.9 mph -11.1 kmh - - 0.7 mph 1.1 kmh
Wind Gusts 3.5 mph5.6 kmh 8.1 mph13.0 kmh - -
Humidity 77% 94% 75% 88%
Pressure 29.75 in1007.5 mb 29.75 in1007.5 mb 29.63 in1003.4 mb -
Precipitation - 0.06 in1.5 mm - -
Hour Temp Dew Point Humidity Winds Wind Gusts Pressure Precip Precip Rate Daily Precip Total
01:10 PM 59.0°F15.0°C 51.8°F11.0°C 77% 1.2 mph S1.9 kmh S 3.5 mph5.6 kmh 29.75 in1007.5 mb - 0.00 in0.0 mm 0.06 in1.5 mm
01:00 PM 59.2°F15.1°C 51.6°F10.9°C 76% 2.3 mph SSW3.7 kmh SSW 4.6 mph7.4 kmh 29.75 in1007.5 mb - 0.00 in0.0 mm 0.06 in1.5 mm
12:50 PM 59.1°F15.1°C 51.2°F10.7°C 75% 3.5 mph S5.6 kmh S 5.8 mph9.3 kmh 29.74 in1007.1 mb - 0.00 in0.0 mm 0.06 in1.5 mm
12:40 PM 59.7°F15.4°C 52.5°F11.4°C 77% 1.2 mph SE1.9 kmh SE 5.8 mph9.3 kmh 29.74 in1007.1 mb - 0.00 in0.0 mm 0.06 in1.5 mm
12:30 PM 59.4°F15.2°C 52.6°F11.4°C 78% 1.2 mph S1.9 kmh S 3.5 mph5.6 kmh 29.73 in1006.8 mb - 0.00 in0.0 mm 0.06 in1.5 mm
12:20 PM 59.2°F15.1°C 52.0°F11.1°C 77% 1.2 mph E1.9 kmh E 3.5 mph5.6 kmh 29.73 in1006.8 mb - 0.00 in0.0 mm 0.06 in1.5 mm
12:10 PM 59.6°F15.3°C 52.0°F11.1°C 76% 1.2 mph S1.9 kmh S 3.5 mph5.6 kmh 29.73 in1006.8 mb - 0.00 in0.0 mm 0.06 in1.5 mm
12:00 PM 59.9°F15.5°C 53.0°F11.7°C 78% 1.2 mph SSW1.9 kmh SSW 2.3 mph3.7 kmh 29.72 in1006.4 mb - 0.00 in0.0 mm 0.06 in1.5 mm
11:50 AM 59.4°F15.2°C 52.2°F11.2°C 77% 1.2 mph S1.9 kmh S 3.5 mph5.6 kmh 29.72 in1006.4 mb - 0.00 in0.0 mm 0.06 in1.5 mm
11:40 AM 59.6°F15.3°C 52.4°F11.3°C 77% 1.2 mph S1.9 kmh S 3.5 mph5.6 kmh 29.72 in1006.4 mb - 0.00 in0.0 mm 0.06 in1.5 mm
11:30 AM 59.2°F15.1°C 52.7°F11.5°C 79% Calm Calm 1.2 mph1.9 kmh 29.72 in1006.4 mb - 0.00 in0.0 mm 0.06 in1.5 mm
11:20 AM 58.9°F14.9°C 52.7°F11.5°C 80% 1.2 mph S1.9 kmh S 3.5 mph5.6 kmh 29.71 in1006.1 mb - 0.00 in0.0 mm 0.06 in1.5 mm
11:10 AM 58.3°F14.6°C 51.5°F10.8°C 78% Calm Calm 3.5 mph5.6 kmh 29.71 in1006.1 mb - 0.00 in0.0 mm 0.06 in1.5 mm
11:00 AM 58.7°F14.8°C 51.5°F10.8°C 77% Calm Calm 1.2 mph1.9 kmh 29.71 in1006.1 mb - 0.00 in0.0 mm 0.06 in1.5 mm
10:50 AM 58.5°F14.7°C 51.3°F10.7°C 77% Calm Calm -- 29.71 in1006.1 mb - 0.00 in0.0 mm 0.06 in1.5 mm
10:40 AM 58.7°F14.8°C 51.2°F10.7°C 76% Calm Calm -- 29.71 in1006.1 mb - 0.00 in0.0 mm 0.06 in1.5 mm
10:30 AM 58.3°F14.6°C 51.4°F10.8°C 78% Calm Calm 1.2 mph1.9 kmh 29.70 in1005.8 mb - 0.00 in0.0 mm 0.06 in1.5 mm
10:20 AM 57.8°F14.3°C 51.6°F10.9°C 80% Calm Calm -- 29.70 in1005.8 mb - 0.00 in0.0 mm 0.06 in1.5 mm
10:10 AM 57.5°F14.2°C 51.7°F10.9°C 81% Calm Calm -- 29.69 in1005.4 mb - 0.00 in0.0 mm 0.06 in1.5 mm
10:00 AM 57.2°F14.0°C 51.8°F11.0°C 82% Calm Calm 1.2 mph1.9 kmh 29.70 in1005.8 mb - 0.00 in0.0 mm 0.06 in1.5 mm
09:50 AM 56.8°F13.8°C 52.0°F11.1°C 84% Calm Calm 1.2 mph1.9 kmh 29.69 in1005.4 mb - 0.00 in0.0 mm 0.06 in1.5 mm
09:40 AM 56.5°F13.6°C 52.0°F11.1°C 85% Calm Calm -- 29.69 in1005.4 mb - 0.00 in0.0 mm 0.06 in1.5 mm
09:30 AM 56.0°F13.3°C 52.2°F11.2°C 87% Calm Calm 2.3 mph3.7 kmh 29.69 in1005.4 mb - 0.00 in0.0 mm 0.06 in1.5 mm
09:20 AM 55.4°F13.0°C 52.2°F11.2°C 89% Calm Calm -- 29.68 in1005.1 mb - 0.00 in0.0 mm 0.06 in1.5 mm
09:10 AM 54.8°F12.7°C 51.6°F10.9°C 89% Calm Calm -- 29.68 in1005.1 mb - 0.00 in0.0 mm 0.06 in1.5 mm
09:00 AM 54.4°F12.4°C 51.8°F11.0°C 91% Calm Calm 1.2 mph1.9 kmh 29.68 in1005.1 mb - 0.00 in0.0 mm 0.06 in1.5 mm
08:50 AM 54.0°F12.2°C 51.7°F10.9°C 92% Calm Calm -- 29.67 in1004.7 mb - 0.00 in0.0 mm 0.06 in1.5 mm
08:40 AM 53.2°F11.8°C 51.2°F10.7°C 93% Calm Calm -- 29.67 in1004.7 mb - 0.00 in0.0 mm 0.06 in1.5 mm
08:30 AM 52.7°F11.5°C 50.7°F10.4°C 93% Calm Calm -- 29.66 in1004.4 mb - 0.00 in0.0 mm 0.06 in1.5 mm
08:20 AM 52.2°F11.2°C 50.5°F10.3°C 94% Calm Calm -- 29.66 in1004.4 mb - 0.00 in0.0 mm 0.06 in1.5 mm
08:10 AM 51.7°F10.9°C 50.0°F10.0°C 94% Calm Calm 1.2 mph1.9 kmh 29.66 in1004.4 mb - 0.00 in0.0 mm 0.06 in1.5 mm
08:00 AM 51.3°F10.7°C 49.6°F9.8°C 94% Calm Calm -- 29.66 in1004.4 mb - 0.00 in0.0 mm 0.06 in1.5 mm
07:50 AM 51.1°F10.6°C 49.4°F9.7°C 94% Calm Calm -- 29.66 in1004.4 mb - 0.00 in0.0 mm 0.06 in1.5 mm
07:40 AM 50.7°F10.4°C 48.7°F9.3°C 93% Calm Calm -- 29.66 in1004.4 mb - 0.00 in0.0 mm 0.06 in1.5 mm
07:30 AM 50.4°F10.2°C 48.7°F9.3°C 94% Calm Calm -- 29.65 in1004.1 mb - 0.00 in0.0 mm 0.06 in1.5 mm
07:20 AM 49.9°F9.9°C 48.0°F8.9°C 93% Calm Calm -- 29.65 in1004.1 mb - 0.00 in0.0 mm 0.06 in1.5 mm
07:10 AM 49.6°F9.8°C 47.6°F8.7°C 93% Calm Calm -- 29.65 in1004.1 mb - 0.00 in0.0 mm 0.06 in1.5 mm
07:00 AM 49.4°F9.7°C 47.4°F8.6°C 93% Calm Calm -- 29.65 in1004.1 mb - 0.00 in0.0 mm 0.06 in1.5 mm
06:50 AM 49.2°F9.6°C 47.3°F8.5°C 93% Calm Calm -- 29.65 in1004.1 mb - 0.00 in0.0 mm 0.06 in1.5 mm
06:40 AM 49.2°F9.6°C 47.3°F8.5°C 93% Calm Calm -- 29.65 in1004.1 mb - 0.00 in0.0 mm 0.06 in1.5 mm
06:30 AM 49.3°F9.6°C 47.3°F8.5°C 93% Calm Calm -- 29.64 in1003.7 mb - 0.00 in0.0 mm 0.06 in1.5 mm
06:20 AM 49.4°F9.7°C 47.4°F8.6°C 93% Calm Calm -- 29.64 in1003.7 mb - 0.00 in0.0 mm 0.06 in1.5 mm
06:10 AM 49.4°F9.7°C 47.5°F8.6°C 93% Calm Calm -- 29.64 in1003.7 mb - 0.00 in0.0 mm 0.06 in1.5 mm
06:00 AM 49.5°F9.7°C 47.6°F8.7°C 93% Calm Calm -- 29.64 in1003.7 mb - 0.00 in0.0 mm 0.06 in1.5 mm
05:50 AM 49.6°F9.8°C 47.7°F8.7°C 93% Calm Calm -- 29.64 in1003.7 mb - 0.00 in0.0 mm 0.06 in1.5 mm
05:40 AM 49.7°F9.8°C 47.8°F8.8°C 93% Calm Calm -- 29.64 in1003.7 mb - 0.00 in0.0 mm 0.06 in1.5 mm
05:30 AM 49.9°F9.9°C 48.0°F8.9°C 93% Calm Calm -- 29.64 in1003.7 mb - 0.00 in0.0 mm 0.06 in1.5 mm
05:20 AM 50.0°F10.0°C 48.1°F8.9°C 93% Calm Calm -- 29.63 in1003.4 mb - 0.00 in0.0 mm 0.06 in1.5 mm
05:10 AM 50.1°F10.1°C 47.9°F8.8°C 92% Calm Calm -- 29.63 in1003.4 mb - 0.00 in0.0 mm 0.06 in1.5 mm
05:00 AM 50.2°F10.1°C 48.0°F8.9°C 92% Calm Calm -- 29.63 in1003.4 mb - 0.00 in0.0 mm 0.06 in1.5 mm
04:50 AM 50.3°F10.2°C 48.1°F8.9°C 92% Calm Calm -- 29.64 in1003.7 mb - 0.00 in0.0 mm 0.06 in1.5 mm
04:40 AM 50.4°F10.2°C 48.5°F9.2°C 93% Calm Calm -- 29.64 in1003.7 mb - 0.00 in0.0 mm 0.06 in1.5 mm
04:30 AM 50.5°F10.3°C 48.3°F9.1°C 92% Calm Calm -- 29.64 in1003.7 mb - 0.00 in0.0 mm 0.06 in1.5 mm
04:20 AM 50.6°F10.3°C 48.4°F9.1°C 92% Calm Calm -- 29.64 in1003.7 mb - 0.00 in0.0 mm 0.06 in1.5 mm
04:10 AM 50.6°F10.3°C 48.4°F9.1°C 92% Calm Calm -- 29.64 in1003.7 mb - 0.00 in0.0 mm 0.06 in1.5 mm
04:00 AM 50.5°F10.3°C 48.3°F9.1°C 92% Calm Calm -- 29.64 in1003.7 mb - 0.00 in0.0 mm 0.06 in1.5 mm
03:50 AM 50.5°F10.3°C 48.3°F9.1°C 92% Calm Calm -- 29.64 in1003.7 mb - 0.00 in0.0 mm 0.06 in1.5 mm
03:40 AM 50.6°F10.3°C 48.4°F9.1°C 92% Calm Calm -- 29.64 in1003.7 mb - 0.00 in0.0 mm 0.06 in1.5 mm
03:30 AM 50.7°F10.4°C 48.5°F9.2°C 92% Calm Calm -- 29.64 in1003.7 mb - 0.00 in0.0 mm 0.06 in1.5 mm
03:20 AM 50.8°F10.4°C 48.6°F9.2°C 92% Calm Calm -- 29.64 in1003.7 mb - 0.00 in0.0 mm 0.06 in1.5 mm
03:10 AM 51.0°F10.6°C 48.8°F9.3°C 92% Calm Calm -- 29.64 in1003.7 mb - 0.00 in0.0 mm 0.06 in1.5 mm
03:00 AM 51.0°F10.6°C 48.8°F9.3°C 92% Calm Calm -- 29.64 in1003.7 mb - 0.00 in0.0 mm 0.06 in1.5 mm
02:50 AM 51.0°F10.6°C 48.8°F9.3°C 92% Calm Calm -- 29.64 in1003.7 mb - 0.00 in0.0 mm 0.06 in1.5 mm
02:40 AM 51.1°F10.6°C 48.9°F9.4°C 92% Calm Calm -- 29.64 in1003.7 mb - 0.01 in0.3 mm 0.06 in1.5 mm
02:30 AM 51.2°F10.7°C 49.0°F9.4°C 92% Calm Calm -- 29.64 in1003.7 mb - 0.01 in0.3 mm 0.06 in1.5 mm
02:20 AM 51.2°F10.7°C 49.0°F9.4°C 92% Calm Calm -- 29.65 in1004.1 mb - 0.01 in0.3 mm 0.06 in1.5 mm
02:10 AM 51.1°F10.6°C 48.9°F9.4°C 92% Calm Calm -- 29.65 in1004.1 mb - 0.02 in0.5 mm 0.06 in1.5 mm
02:00 AM 51.2°F10.7°C 49.0°F9.4°C 92% Calm Calm -- 29.66 in1004.4 mb - 0.02 in0.5 mm 0.06 in1.5 mm
01:50 AM 51.2°F10.7°C 48.7°F9.3°C 91% 1.2 mph NW1.9 kmh NW 2.3 mph3.7 kmh 29.66 in1004.4 mb - 0.03 in0.8 mm 0.06 in1.5 mm
01:40 AM 51.3°F10.7°C 48.8°F9.3°C 91% 1.2 mph NW1.9 kmh NW 3.5 mph5.6 kmh 29.66 in1004.4 mb - 0.03 in0.8 mm 0.05 in1.3 mm
01:30 AM 51.5°F10.8°C 49.0°F9.4°C 91% 3.5 mph NW5.6 kmh NW 3.5 mph5.6 kmh 29.66 in1004.4 mb - 0.04 in1.0 mm 0.05 in1.3 mm
01:20 AM 51.6°F10.9°C 49.0°F9.4°C 91% 3.5 mph NW5.6 kmh NW 3.5 mph5.6 kmh 29.66 in1004.4 mb - 0.05 in1.3 mm 0.05 in1.3 mm
01:10 AM 51.6°F10.9°C 49.1°F9.5°C 91% 2.3 mph NW3.7 kmh NW 3.5 mph5.6 kmh 29.66 in1004.4 mb - 0.05 in1.3 mm 0.05 in1.3 mm
01:00 AM 51.4°F10.8°C 48.9°F9.4°C 91% 2.3 mph NNW3.7 kmh NNW 3.5 mph5.6 kmh 29.66 in1004.4 mb - 0.04 in1.0 mm 0.04 in1.0 mm
12:50 AM 51.4°F10.8°C 48.6°F9.2°C 90% 2.3 mph NW3.7 kmh NW 3.5 mph5.6 kmh 29.66 in1004.4 mb - 0.03 in0.8 mm 0.03 in0.8 mm
12:40 AM 51.5°F10.8°C 48.7°F9.3°C 90% 4.6 mph NW7.4 kmh NW 4.6 mph7.4 kmh 29.66 in1004.4 mb - 0.02 in0.5 mm 0.02 in0.5 mm
12:30 AM 51.6°F10.9°C 48.8°F9.3°C 90% 6.9 mph NW11.1 kmh NW 8.1 mph13.0 kmh 29.67 in1004.7 mb - 0.01 in0.3 mm 0.01 in0.3 mm
12:20 AM 51.7°F10.9°C 48.9°F9.4°C 90% 3.5 mph NW5.6 kmh NW 6.9 mph11.1 kmh 29.66 in1004.4 mb - 0.00 in0.0 mm 0.02 in0.5 mm
12:10 AM 51.7°F10.9°C 48.9°F9.4°C 90% 4.6 mph NW7.4 kmh NW 6.9 mph11.1 kmh 29.67 in1004.7 mb - 0.01 in0.3 mm 0.02 in0.5 mm
12:00 AM 51.8°F11.0°C 48.7°F9.3°C 89% 1.2 mph NW1.9 kmh NW 2.3 mph3.7 kmh 29.67 in1004.7 mb - 0.01 in0.3 mm 0.01 in0.3 mm